Time;durP1;ratioP1;P1;durP2;ratioP2;P2;SDS_P1;SDS_P2;PMS_P1;PMS_P2;Temp;Humidity;BMP_temperature;BMP_pressure;BME280_temperature;BME280_humidity;BME280_pressure;Samples;Min_cycle;Max_cycle;Signal;HPM_P1;HPM_P2
2022/01/20 00:01:47;;;;;;;17.95;8.02;;;;;;;-5.91;68.77;95496.41;5115179;27;20394;-82
2022/01/20 00:04:25;;;;;;;16.70;7.30;;;;;;;-5.96;68.13;95490.59;5119700;27;20023;-82
2022/01/20 00:25:46;;;;;;;17.52;7.97;;;;;;;-6.16;69.22;95484.84;5112092;28;20055;-82
2022/01/20 00:26:14;;;;;;;14.15;7.32;;;;;;;-6.01;68.75;95484.75;5111838;28;20032;-82
2022/01/20 00:28:43;;;;;;;16.08;7.40;;;;;;;-6.05;69.49;95477.16;5111442;27;20047;-83
2022/01/20 00:31:28;;;;;;;14.68;7.28;;;;;;;-5.94;68.99;95461.03;5134808;27;20035;-82
2022/01/20 00:34:11;;;;;;;15.30;7.55;;;;;;;-5.83;68.75;95463.44;5119254;27;20115;-81
2022/01/20 00:39:20;;;;;;;14.93;7.50;;;;;;;-5.63;68.12;95470.84;5133824;27;20147;-83
2022/01/20 00:41:46;;;;;;;15.00;7.63;;;;;;;-5.75;68.25;95455.78;5116367;27;20500;-83
2022/01/20 00:44:11;;;;;;;21.50;7.80;;;;;;;-5.90;67.89;95447.50;5116344;27;20428;-82
2022/01/20 00:46:36;;;;;;;13.48;7.85;;;;;;;-5.93;67.66;95459.38;5098414;27;20647;-83
2022/01/20 00:49:02;;;;;;;18.08;7.57;;;;;;;-6.00;68.72;95450.97;5115836;27;20477;-83
2022/01/20 00:51:27;;;;;;;16.38;7.55;;;;;;;-5.94;68.50;95453.44;5116243;27;20487;-82
2022/01/20 00:53:54;;;;;;;13.93;7.28;;;;;;;-5.81;68.10;95455.88;5116103;27;20504;-82
2022/01/20 00:56:19;;;;;;;22.52;7.25;;;;;;;-5.94;68.24;95435.75;5134431;27;20035;-82
2022/01/20 00:58:45;;;;;;;11.90;7.53;;;;;;;-5.95;68.71;95443.38;5126065;27;20031;-82
2022/01/20 01:01:10;;;;;;;14.63;7.13;;;;;;;-5.85;68.48;95455.03;5112532;28;20034;-81
2022/01/20 01:03:36;;;;;;;14.55;8.10;;;;;;;-5.85;68.61;95449.97;5114965;27;20076;-82
2022/01/20 01:08:36;;;;;;;21.20;9.00;;;;;;;-5.88;68.24;95445.78;5133264;27;20037;-82
2022/01/20 01:11:02;;;;;;;20.10;8.82;;;;;;;-5.73;68.41;95444.81;5133217;27;20041;-82
2022/01/20 01:13:29;;;;;;;14.70;7.45;;;;;;;-5.63;68.50;95440.47;5115808;27;20031;-82
2022/01/20 01:15:54;;;;;;;14.57;7.63;;;;;;;-5.59;68.01;95443.84;5115678;27;20553;-82
2022/01/20 01:23:31;;;;;;;17.75;9.02;;;;;;;-5.99;68.21;95431.56;5132775;27;20062;-80
2022/01/20 01:25:57;;;;;;;19.58;9.30;;;;;;;-5.96;68.00;95427.34;5115575;27;20031;-82
2022/01/20 01:28:26;;;;;;;13.57;8.52;;;;;;;-5.97;68.08;95434.94;5133594;27;20111;-82
2022/01/20 01:33:38;;;;;;;12.82;7.75;;;;;;;-6.21;68.93;95418.25;5118299;27;20031;-81
2022/01/20 01:36:06;;;;;;;16.92;8.95;;;;;;;-6.31;68.16;95436.06;5115732;27;20088;-82
2022/01/20 01:38:38;;;;;;;16.92;8.45;;;;;;;-6.41;69.02;95416.72;5133642;27;20106;-82
2022/01/20 01:41:15;;;;;;;16.73;9.65;;;;;;;-6.29;68.59;95423.41;5116171;27;20030;-82
2022/01/20 01:43:43;;;;;;;16.05;8.82;;;;;;;-6.23;69.04;95422.53;5132000;27;20504;-82
2022/01/20 01:46:09;;;;;;;21.98;8.10;;;;;;;-6.17;69.11;95412.34;5098225;27;20103;-82
2022/01/20 01:48:35;;;;;;;15.10;7.75;;;;;;;-6.19;68.96;95393.81;5098017;27;20027;-82
2022/01/20 01:51:00;;;;;;;15.55;8.32;;;;;;;-6.26;69.06;95402.31;5131976;27;20058;-82
2022/01/20 01:53:27;;;;;;;15.75;8.02;;;;;;;-6.22;69.33;95399.72;5097814;27;20466;-80
2022/01/20 01:55:52;;;;;;;19.85;9.20;;;;;;;-6.32;68.54;95404.03;5114670;27;20035;-82
2022/01/20 01:58:18;;;;;;;20.25;9.38;;;;;;;-6.45;69.31;95401.63;5130966;27;20516;-81
2022/01/20 02:00:43;;;;;;;16.42;8.55;;;;;;;-6.52;69.49;95404.19;5131643;27;20065;-82
2022/01/20 02:03:09;;;;;;;23.30;8.18;;;;;;;-6.66;68.16;95387.44;5099126;28;20028;-81
2022/01/20 02:05:42;;;;;;;16.30;8.07;;;;;;;-6.64;69.88;95390.78;5094183;28;20088;-81
2022/01/20 02:18:51;;;;;;;10.88;6.88;;;;;;;-6.61;69.97;95400.88;5152296;27;20117;-82
2022/01/20 02:21:17;;;;;;;15.60;8.27;;;;;;;-6.65;69.53;95379.84;5151901;27;20427;-82
2022/01/20 02:23:44;;;;;;;17.75;8.05;;;;;;;-6.62;69.55;95384.06;5134841;27;20038;-82
2022/01/20 02:26:10;;;;;;;13.35;7.80;;;;;;;-6.59;69.57;95384.84;5117734;27;20050;-82
2022/01/20 02:28:35;;;;;;;16.08;7.50;;;;;;;-6.66;69.80;95378.16;5134808;27;20034;-82
2022/01/20 02:31:01;;;;;;;17.13;7.78;;;;;;;-6.53;69.85;95363.75;5153315;27;20058;-82
2022/01/20 02:33:27;;;;;;;17.27;8.63;;;;;;;-6.50;70.01;95368.78;5153322;27;20076;-82
2022/01/20 02:35:55;;;;;;;14.35;7.57;;;;;;;-6.57;70.20;95359.59;5134907;27;20034;-81
2022/01/20 02:38:35;;;;;;;17.67;8.27;;;;;;;-6.49;69.72;95359.50;5117763;27;20419;-82
2022/01/20 02:46:32;;;;;;;26.88;9.18;;;;;;;-6.68;69.15;95356.31;5152265;27;20171;-81
2022/01/20 02:48:57;;;;;;;18.08;9.57;;;;;;;-6.66;69.29;95347.00;5134238;27;20064;-81
2022/01/20 02:51:23;;;;;;;15.27;8.15;;;;;;;-6.54;69.19;95341.84;5151812;27;20022;-82
2022/01/20 02:53:48;;;;;;;15.55;8.52;;;;;;;-6.55;69.30;95346.09;5117171;27;20126;-82
2022/01/20 02:56:14;;;;;;;17.65;7.88;;;;;;;-6.66;68.98;95336.88;5134539;27;20039;-82
2022/01/20 02:58:39;;;;;;;18.38;8.38;;;;;;;-6.62;69.09;95343.59;5134360;27;20544;-82
2022/01/20 03:01:05;;;;;;;18.55;7.30;;;;;;;-6.68;69.13;95353.78;5151575;27;20080;-82
2022/01/20 03:03:30;;;;;;;12.20;7.43;;;;;;;-6.72;69.34;95342.81;5115795;28;20028;-82
2022/01/20 03:05:56;;;;;;;14.40;7.03;;;;;;;-6.84;69.34;95325.25;5132308;27;20031;-82
2022/01/20 03:08:21;;;;;;;17.08;7.90;;;;;;;-6.88;69.43;95321.91;5114212;27;20027;-83
2022/01/20 03:10:47;;;;;;;12.77;7.43;;;;;;;-6.88;69.59;95341.25;5135387;27;20489;-82
2022/01/20 03:13:12;;;;;;;15.52;7.30;;;;;;;-6.83;69.20;95345.44;5135315;27;20023;-82
2022/01/20 03:15:38;;;;;;;18.55;7.90;;;;;;;-6.92;69.96;95350.56;5134949;27;20031;-82
2022/01/20 03:18:03;;;;;;;13.85;6.95;;;;;;;-6.99;70.32;95339.66;5135167;27;20035;-83
2022/01/20 03:20:29;;;;;;;14.43;6.90;;;;;;;-6.90;69.98;95342.97;5117930;27;20030;-83
2022/01/20 03:22:54;;;;;;;15.02;6.65;;;;;;;-6.83;69.70;95337.84;5100779;27;20034;-83
2022/01/20 03:25:20;;;;;;;12.50;6.93;;;;;;;-6.86;70.18;95337.03;5134938;27;20023;-82
2022/01/20 03:27:45;;;;;;;12.77;6.95;;;;;;;-6.79;70.14;95331.94;5117882;27;20038;-83
2022/01/20 03:30:11;;;;;;;18.10;7.03;;;;;;;-6.80;70.05;95335.31;5134845;27;20110;-82
2022/01/20 03:32:36;;;;;;;13.35;7.00;;;;;;;-6.84;69.60;95328.59;5117813;27;20042;-82
2022/01/20 03:35:03;;;;;;;16.40;7.93;;;;;;;-6.87;70.06;95340.44;5134660;27;20035;-82
2022/01/20 03:37:29;;;;;;;15.73;7.35;;;;;;;-6.88;69.92;95331.16;5100960;27;20058;-83
2022/01/20 03:39:54;;;;;;;22.45;9.35;;;;;;;-6.75;70.62;95330.22;5117745;27;20066;-82
2022/01/20 03:42:20;;;;;;;16.92;8.70;;;;;;;-6.77;69.91;95324.31;5117840;27;20058;-82
2022/01/20 03:44:45;;;;;;;14.18;8.50;;;;;;;-6.73;69.34;95327.69;5134527;27;20031;-83
2022/01/20 03:47:11;;;;;;;19.65;8.80;;;;;;;-6.80;69.60;95324.34;5136448;27;20031;-82
2022/01/20 03:49:50;;;;;;;18.05;8.68;;;;;;;-6.79;69.90;95331.94;5134495;27;20059;-83
2022/01/20 03:52:15;;;;;;;14.50;7.82;;;;;;;-6.68;69.73;95328.50;5104350;27;20027;-83
2022/01/20 03:54:40;;;;;;;16.33;8.48;;;;;;;-6.63;70.22;95321.69;5135510;27;20042;-83
2022/01/20 03:57:06;;;;;;;12.88;7.15;;;;;;;-6.60;69.95;95319.13;5117797;27;20035;-83
2022/01/20 03:59:31;;;;;;;18.85;8.80;;;;;;;-6.45;70.33;95310.59;5100366;27;20031;-83
2022/01/20 04:01:57;;;;;;;13.20;7.60;;;;;;;-6.52;69.90;95298.03;5129335;27;20101;-82
2022/01/20 04:04:22;;;;;;;14.20;8.05;;;;;;;-6.38;70.17;95308.00;5113581;28;20054;-83
2022/01/20 04:06:48;;;;;;;14.63;7.78;;;;;;;-6.38;70.21;95322.31;5114090;28;20024;-84
2022/01/20 04:09:13;;;;;;;17.83;8.35;;;;;;;-6.40;69.70;95304.66;5096768;28;20028;-83
2022/01/20 04:11:39;;;;;;;19.48;9.45;;;;;;;-6.37;69.13;95324.84;5096903;28;20066;-83
2022/01/20 04:14:04;;;;;;;16.48;8.80;;;;;;;-6.30;69.32;95318.84;5096456;28;20055;-83
2022/01/20 04:16:50;;;;;;;10.63;6.25;;;;;;;-6.22;68.85;95313.72;5113863;28;20035;-83
2022/01/20 04:19:15;;;;;;;10.43;5.75;;;;;;;-6.23;69.10;95314.59;5084110;28;20077;-84
2022/01/20 04:21:42;;;;;;;12.63;7.43;;;;;;;-6.30;68.25;95316.34;5113548;28;20031;-83
2022/01/20 04:24:07;;;;;;;14.63;7.47;;;;;;;-6.31;68.43;95314.66;5079801;28;20058;-83
2022/01/20 04:26:36;;;;;;;14.40;7.20;;;;;;;-6.21;68.14;95300.25;5096213;28;20485;-83
2022/01/20 04:29:02;;;;;;;17.00;7.57;;;;;;;-6.23;67.69;95307.00;5113468;28;20088;-83
2022/01/20 04:31:29;;;;;;;42.38;25.42;;;;;;;-6.28;68.27;95300.31;5113273;28;20481;-83
2022/01/20 04:33:56;;;;;;;18.05;11.23;;;;;;;-6.21;68.01;95309.50;5079497;28;20046;-82
2022/01/20 04:36:22;;;;;;;18.38;10.27;;;;;;;-6.21;67.62;95319.63;5096372;28;20042;-83
2022/01/20 04:38:48;;;;;;;16.15;8.98;;;;;;;-6.36;67.86;95311.34;5113093;27;20028;-83
2022/01/20 04:41:13;;;;;;;21.48;9.75;;;;;;;-6.48;67.70;95308.09;5079276;28;20541;-83
2022/01/20 04:43:39;;;;;;;16.25;9.30;;;;;;;-6.47;67.90;95305.53;5112985;28;20039;-83
2022/01/20 04:46:15;;;;;;;18.48;9.50;;;;;;;-6.53;67.78;95311.50;5112992;28;20039;-82
2022/01/20 04:59:21;;;;;;;17.08;8.60;;;;;;;-6.35;68.26;95297.88;5113115;28;20473;-83
2022/01/20 05:01:47;;;;;;;20.85;9.75;;;;;;;-6.30;68.24;95305.38;5116485;27;20027;-83
2022/01/20 05:04:12;;;;;;;18.65;9.95;;;;;;;-6.32;67.88;95304.59;5133320;27;20019;-83
2022/01/20 05:06:40;;;;;;;22.67;9.60;;;;;;;-6.35;67.78;95305.44;5134658;27;20031;-83
2022/01/20 05:09:06;;;;;;;19.63;9.57;;;;;;;-6.39;67.34;95306.31;5099834;27;20034;-83
2022/01/20 05:11:35;;;;;;;21.42;9.35;;;;;;;-6.50;67.55;95307.28;5116106;27;20031;-82
2022/01/20 05:14:00;;;;;;;21.63;11.63;;;;;;;-6.64;68.39;95302.34;5132899;27;20027;-83
2022/01/20 05:16:25;;;;;;;24.55;12.77;;;;;;;-6.52;68.31;95304.75;5099127;27;20392;-83
2022/01/20 05:18:51;;;;;;;19.25;10.85;;;;;;;-6.61;68.18;95302.31;5116018;27;20405;-83
2022/01/20 05:21:16;;;;;;;17.58;10.82;;;;;;;-6.61;68.02;95310.72;5114760;27;20400;-83
2022/01/20 05:23:42;;;;;;;17.15;10.15;;;;;;;-6.66;68.43;95301.50;5129356;27;20497;-83
2022/01/20 05:26:07;;;;;;;18.00;9.63;;;;;;;-6.82;69.04;95310.91;5132667;27;20042;-83
2022/01/20 05:28:32;;;;;;;12.63;8.20;;;;;;;-6.77;68.56;95304.13;5133752;27;20034;-83
2022/01/20 05:30:59;;;;;;;15.27;8.15;;;;;;;-6.91;68.50;95319.38;5131607;27;20302;-82
2022/01/20 05:33:25;;;;;;;15.80;7.85;;;;;;;-6.92;68.92;95316.88;5131175;27;20031;-81
2022/01/20 05:35:50;;;;;;;14.55;8.48;;;;;;;-6.98;69.17;95318.59;5114604;27;20581;-81
2022/01/20 05:38:16;;;;;;;21.30;9.23;;;;;;;-6.97;68.98;95305.09;5121999;27;20031;-82
2022/01/20 05:40:41;;;;;;;17.80;8.82;;;;;;;-6.91;69.06;95316.03;5130695;27;20023;-83
2022/01/20 05:43:07;;;;;;;21.45;9.50;;;;;;;-6.93;69.60;95328.69;5119553;27;20419;-82
2022/01/20 05:45:32;;;;;;;26.13;9.20;;;;;;;-6.88;69.65;95314.31;5131346;27;20039;-84
2022/01/20 05:48:08;;;;;;;13.55;7.35;;;;;;;-6.91;69.27;95306.75;5132048;27;20058;-81
2022/01/20 05:50:34;;;;;;;16.73;7.40;;;;;;;-6.90;68.91;95307.59;5130412;27;20058;-83
2022/01/20 05:52:59;;;;;;;13.77;7.13;;;;;;;-6.90;68.92;95313.50;5125630;27;20031;-81
2022/01/20 05:55:25;;;;;;;13.43;7.25;;;;;;;-7.00;69.65;95322.81;5109759;28;20512;-81
2022/01/20 05:57:50;;;;;;;16.42;8.00;;;;;;;-6.95;69.46;95325.31;5115870;27;20416;-82
2022/01/20 06:00:20;;;;;;;15.57;7.63;;;;;;;-7.02;69.76;95319.47;5109602;27;20494;-82
2022/01/20 06:05:31;;;;;;;13.30;7.60;;;;;;;-6.91;70.09;95308.44;5127125;27;20038;-81
2022/01/20 06:07:56;;;;;;;21.33;10.60;;;;;;;-6.88;69.54;95326.09;5130776;27;20062;-82
2022/01/20 06:10:22;;;;;;;18.65;8.85;;;;;;;-6.94;70.35;95316.88;5107822;27;20622;-81
2022/01/20 06:12:47;;;;;;;24.08;10.50;;;;;;;-6.91;69.98;95316.84;5120062;27;20034;-81
2022/01/20 06:15:13;;;;;;;20.88;10.10;;;;;;;-6.87;69.32;95318.53;5130501;27;20420;-82
2022/01/20 06:17:39;;;;;;;23.15;10.95;;;;;;;-6.87;69.30;95313.47;5106006;27;20493;-80
2022/01/20 06:20:05;;;;;;;26.65;10.80;;;;;;;-6.84;69.57;95310.09;5129922;27;20053;-81
2022/01/20 06:22:31;;;;;;;20.60;9.73;;;;;;;-7.09;69.94;95257.22;5127335;27;20126;-79
2022/01/20 06:24:56;;;;;;;22.42;11.50;;;;;;;-6.83;70.00;95320.16;5110402;27;20027;-83
2022/01/20 06:27:21;;;;;;;25.77;10.40;;;;;;;-6.92;70.15;95329.50;5092765;28;20031;-83
2022/01/20 06:29:50;;;;;;;23.73;12.23;;;;;;;-6.85;69.54;95323.53;5128741;27;20031;-84
2022/01/20 06:32:15;;;;;;;30.92;12.68;;;;;;;-6.77;69.70;95324.31;5129447;27;20054;-83
2022/01/20 06:34:40;;;;;;;29.25;13.02;;;;;;;-6.74;69.70;95314.22;5123294;27;20473;-84
2022/01/20 06:37:06;;;;;;;29.33;13.82;;;;;;;-6.61;69.59;95330.94;5133994;27;20018;-83
2022/01/20 06:39:31;;;;;;;23.98;12.90;;;;;;;-6.55;69.96;95327.53;5125556;27;20078;-83
2022/01/20 06:41:57;;;;;;;28.67;13.63;;;;;;;-6.46;70.42;95324.06;5128782;27;20076;-83
2022/01/20 06:44:22;;;;;;;21.23;11.68;;;;;;;-6.40;69.99;95324.88;5121176;27;20560;-83
2022/01/20 06:46:49;;;;;;;16.27;9.18;;;;;;;-6.49;70.30;95314.00;5105563;27;20019;-84
2022/01/20 06:49:15;;;;;;;19.35;8.88;;;;;;;-6.41;70.63;95308.00;5109118;28;20043;-83
2022/01/20 06:51:41;;;;;;;22.35;9.13;;;;;;;-6.26;70.27;95317.16;5128597;27;20050;-82
2022/01/20 06:54:06;;;;;;;19.17;8.80;;;;;;;-6.26;70.34;95309.56;5111592;27;20066;-82
2022/01/20 06:56:32;;;;;;;15.65;8.15;;;;;;;-6.20;69.89;95306.16;5112113;27;20035;-79
2022/01/20 06:58:57;;;;;;;14.38;9.05;;;;;;;-6.14;69.94;95311.13;5095142;28;20035;-81
2022/01/20 07:01:23;;;;;;;17.73;8.70;;;;;;;-6.17;69.92;95311.16;5090912;28;20030;-81
2022/01/20 07:03:48;;;;;;;14.75;7.88;;;;;;;-6.05;70.28;95307.66;5126410;28;20418;-81
2022/01/20 07:06:14;;;;;;;15.65;9.05;;;;;;;-5.98;69.67;95311.81;5126905;28;20019;-81
2022/01/20 07:08:39;;;;;;;13.57;9.02;;;;;;;-6.03;70.23;95299.22;5122648;27;20031;-81
2022/01/20 07:11:04;;;;;;;21.05;8.88;;;;;;;-5.82;69.29;95305.69;5125516;28;20027;-79
2022/01/20 07:13:30;;;;;;;16.27;8.88;;;;;;;-5.79;69.35;95304.81;5104610;28;20051;-86
2022/01/20 07:15:55;;;;;;;15.05;9.15;;;;;;;-5.64;68.91;95312.22;5126552;28;20023;-85
2022/01/20 07:18:21;;;;;;;16.73;8.75;;;;;;;-5.65;69.21;95313.94;5108905;28;20024;-85
2022/01/20 07:20:46;;;;;;;15.40;8.00;;;;;;;-5.57;68.86;95313.84;5127045;28;20500;-85
2022/01/20 07:23:13;;;;;;;18.88;9.55;;;;;;;-5.70;68.41;95302.19;5104606;28;20473;-84
2022/01/20 07:25:38;;;;;;;16.23;7.97;;;;;;;-5.77;69.03;95292.97;5112116;28;20023;-84
2022/01/20 07:28:04;;;;;;;15.52;7.70;;;;;;;-5.84;68.28;95275.34;5122503;27;20035;-81
2022/01/20 07:30:29;;;;;;;14.30;7.45;;;;;;;-5.75;68.51;95293.81;5119424;28;20035;-76
2022/01/20 07:32:55;;;;;;;33.80;19.05;;;;;;;-5.65;68.10;95300.44;5087644;28;20485;-77
2022/01/20 07:35:20;;;;;;;27.15;12.65;;;;;;;-5.66;68.34;95294.50;5106400;28;20032;-77
2022/01/20 07:37:47;;;;;;;16.30;8.48;;;;;;;-5.59;69.07;95304.59;5107534;28;20512;-78
2022/01/20 07:40:12;;;;;;;16.05;7.97;;;;;;;-5.57;68.92;95303.72;5124366;27;20023;-81
2022/01/20 07:42:38;;;;;;;15.20;8.50;;;;;;;-5.88;68.43;95252.59;5091978;28;20108;-79
2022/01/20 07:45:04;;;;;;;14.85;7.70;;;;;;;-5.19;68.44;95303.19;5103185;28;20500;-81
2022/01/20 07:47:29;;;;;;;12.40;7.25;;;;;;;-4.65;68.63;95309.16;5110771;28;20035;-82
2022/01/20 07:49:54;;;;;;;13.05;7.95;;;;;;;-4.22;66.03;95291.50;5110191;28;20058;-82
2022/01/20 07:52:20;;;;;;;15.75;8.68;;;;;;;-3.92;64.68;95291.81;5111959;28;20488;-81
2022/01/20 07:54:45;;;;;;;14.25;7.88;;;;;;;-3.63;64.00;95293.78;5126953;27;20034;-78
2022/01/20 07:57:11;;;;;;;16.60;9.13;;;;;;;-3.45;62.81;95275.63;5117631;27;20019;-79
2022/01/20 07:59:36;;;;;;;21.00;9.43;;;;;;;-2.87;61.45;95314.19;5118821;27;20080;-81
2022/01/20 08:02:02;;;;;;;13.68;8.45;;;;;;;-2.61;62.13;95302.59;5093135;27;20127;-80
2022/01/20 08:04:27;;;;;;;20.77;8.40;;;;;;;-2.43;61.79;95299.56;5131113;27;20029;-79
2022/01/20 08:06:53;;;;;;;19.05;8.45;;;;;;;-2.31;61.27;95301.84;5134033;27;20023;-80
2022/01/20 08:09:18;;;;;;;20.40;8.60;;;;;;;-2.25;61.19;95303.38;5111276;27;20232;-83
2022/01/20 08:11:44;;;;;;;22.77;10.65;;;;;;;-2.13;60.65;95317.50;5120252;27;20489;-81
2022/01/20 08:14:10;;;;;;;19.92;9.18;;;;;;;-2.03;60.22;95307.06;5117573;27;20481;-81
2022/01/20 08:16:35;;;;;;;22.08;10.13;;;;;;;-2.09;60.83;95303.81;5099780;27;20500;-80
2022/01/20 08:19:01;;;;;;;19.73;9.68;;;;;;;-1.97;59.88;95306.06;5133883;27;20092;-81
2022/01/20 08:21:28;;;;;;;18.85;9.88;;;;;;;-1.87;59.55;95310.00;5133732;27;20452;-81
2022/01/20 08:23:53;;;;;;;21.33;9.32;;;;;;;-1.81;59.81;95302.22;5106935;28;20043;-81
2022/01/20 08:26:18;;;;;;;18.50;10.05;;;;;;;-1.88;59.58;95284.59;5152083;27;20031;-80
2022/01/20 08:28:44;;;;;;;22.25;10.10;;;;;;;-1.78;60.25;95286.03;5122185;27;20028;-82
2022/01/20 08:31:10;;;;;;;30.08;12.73;;;;;;;-1.73;59.49;95265.50;5095545;28;20039;-80
2022/01/20 08:33:35;;;;;;;33.80;15.98;;;;;;;-1.53;57.90;95278.53;5096144;28;20019;-81
2022/01/20 08:36:00;;;;;;;26.95;15.80;;;;;;;-1.57;60.18;95271.84;5112834;28;20481;-81
2022/01/20 08:38:26;;;;;;;36.88;17.58;;;;;;;-1.32;57.16;95286.44;5114483;28;20070;-81
2022/01/20 08:40:52;;;;;;;29.55;16.65;;;;;;;-1.28;57.93;95272.72;5114000;28;20024;-81
2022/01/20 08:43:17;;;;;;;36.08;17.25;;;;;;;-1.09;57.09;95281.50;5095903;28;20023;-81
2022/01/20 08:45:44;;;;;;;36.72;17.60;;;;;;;-0.96;56.64;95275.16;5113985;28;20043;-81
2022/01/20 08:48:12;;;;;;;33.05;17.02;;;;;;;-0.90;58.01;95289.44;5096037;28;20118;-81
2022/01/20 08:50:38;;;;;;;37.33;16.13;;;;;;;-0.78;57.20;95275.44;5096345;28;20079;-81
2022/01/20 08:53:03;;;;;;;32.53;15.27;;;;;;;-0.68;56.80;95274.28;5112904;28;20477;-81
2022/01/20 08:55:29;;;;;;;31.10;16.55;;;;;;;-0.58;56.65;95260.38;5095318;28;20027;-83
2022/01/20 08:57:55;;;;;;;34.92;16.77;;;;;;;-0.38;53.99;95266.53;5112868;28;20036;-78
2022/01/20 09:00:21;;;;;;;39.53;16.92;;;;;;;-0.30;55.11;95269.69;5095525;28;20099;-78
2022/01/20 09:02:46;;;;;;;34.40;17.45;;;;;;;-0.21;55.16;95271.09;5095136;28;20126;-78
2022/01/20 09:05:12;;;;;;;42.40;17.40;;;;;;;-0.08;54.91;95270.63;5113547;28;20034;-78
2022/01/20 09:07:37;;;;;;;47.85;18.02;;;;;;;0.04;54.02;95273.63;5112910;28;20466;-78
2022/01/20 09:10:07;;;;;;;37.58;18.45;;;;;;;0.25;52.48;95272.88;5112011;28;20031;-77
2022/01/20 09:17:41;;;;;;;64.30;28.55;;;;;;;0.72;51.28;95269.50;5097971;28;20038;-77
2022/01/20 09:20:07;;;;;;;49.53;23.30;;;;;;;0.79;52.08;95256.44;5111822;28;20027;-77
2022/01/20 09:22:33;;;;;;;48.35;22.35;;;;;;;0.92;50.51;95268.75;5111713;28;20031;-77
2022/01/20 09:24:58;;;;;;;52.67;23.00;;;;;;;1.05;50.34;95264.84;5094685;28;20485;-77
2022/01/20 09:27:23;;;;;;;56.45;21.88;;;;;;;1.11;48.75;95260.34;5094531;28;20473;-77
2022/01/20 09:29:49;;;;;;;53.47;21.23;;;;;;;1.19;51.22;95251.50;5111593;28;20105;-77
2022/01/20 09:32:16;;;;;;;59.00;21.45;;;;;;;1.29;51.99;95252.81;5111432;28;20028;-77
2022/01/20 09:34:42;;;;;;;56.35;22.88;;;;;;;1.30;50.18;95244.25;5094709;28;20077;-77
2022/01/20 09:37:08;;;;;;;62.40;21.85;;;;;;;1.51;50.49;95243.38;5111496;28;20066;-77
2022/01/20 09:39:34;;;;;;;59.00;22.73;;;;;;;1.53;49.62;95231.34;5111272;28;20039;-77
2022/01/20 09:41:59;;;;;;;68.07;23.65;;;;;;;1.71;50.13;95228.94;5111299;28;20497;-77
2022/01/20 09:44:25;;;;;;;57.70;23.85;;;;;;;1.86;48.83;95233.41;5094517;28;20023;-77
2022/01/20 09:46:50;;;;;;;58.55;23.45;;;;;;;1.97;48.67;95220.97;5111349;28;20043;-77
2022/01/20 09:49:16;;;;;;;54.53;22.83;;;;;;;2.01;48.58;95221.69;5094077;28;20054;-77
2022/01/20 09:51:41;;;;;;;53.72;25.02;;;;;;;2.14;46.96;95215.09;5111168;28;20500;-77
2022/01/20 09:54:07;;;;;;;49.42;21.30;;;;;;;2.27;44.25;95201.78;5094016;27;20496;-78
2022/01/20 09:56:33;;;;;;;46.13;20.83;;;;;;;2.42;43.58;95190.81;5111212;28;20028;-78
2022/01/20 09:58:58;;;;;;;44.70;18.45;;;;;;;2.46;45.84;95202.63;5112626;27;20035;-77
2022/01/20 10:01:44;;;;;;;39.53;16.63;;;;;;;2.53;42.90;95198.88;5094040;28;20035;-77
2022/01/20 10:04:20;;;;;;;31.67;13.07;;;;;;;2.65;40.65;95187.25;5094779;28;20508;-78
2022/01/20 10:07:02;;;;;;;33.05;13.60;;;;;;;2.59;41.30;95183.22;5094085;28;20646;-77
2022/01/20 10:09:42;;;;;;;35.05;13.35;;;;;;;2.82;41.35;95173.63;5111040;28;20032;-78
2022/01/20 10:12:09;;;;;;;30.45;12.48;;;;;;;2.94;41.12;95164.50;5110887;28;20031;-78
2022/01/20 10:14:49;;;;;;;28.77;11.65;;;;;;;3.04;41.71;95168.31;5093981;28;20043;-78
2022/01/20 10:17:25;;;;;;;29.98;12.38;;;;;;;3.25;41.67;95169.00;5110743;28;20413;-78
2022/01/20 10:19:52;;;;;;;36.60;14.60;;;;;;;3.32;41.10;95157.53;5110010;28;20057;-78
2022/01/20 10:22:21;;;;;;;36.97;14.38;;;;;;;3.51;42.35;95168.56;5093699;28;20031;-77
2022/01/20 10:25:02;;;;;;;57.38;26.98;;;;;;;3.65;40.26;95162.75;5110631;28;20077;-78
2022/01/20 10:27:27;;;;;;;49.45;16.77;;;;;;;3.68;42.26;95146.34;5111814;28;20020;-78
2022/01/20 10:29:57;;;;;;;35.83;16.15;;;;;;;3.58;42.03;95148.53;5110657;28;20036;-79
2022/01/20 10:32:23;;;;;;;35.05;15.85;;;;;;;3.55;43.09;95146.94;5094074;28;20026;-77
2022/01/20 10:34:49;;;;;;;33.85;14.98;;;;;;;3.62;42.75;95156.91;5093570;28;20481;-77
2022/01/20 10:37:17;;;;;;;31.75;15.02;;;;;;;3.70;43.15;95136.81;5107411;28;20185;-77
2022/01/20 10:39:44;;;;;;;36.33;14.88;;;;;;;3.80;40.35;95145.72;5110374;28;20027;-78
2022/01/20 10:42:11;;;;;;;32.28;13.70;;;;;;;3.79;40.77;95134.63;5093386;28;20034;-77
2022/01/20 10:44:56;;;;;;;31.45;13.90;;;;;;;3.86;39.35;95119.69;5111433;28;20023;-78
2022/01/20 10:47:26;;;;;;;34.75;14.98;;;;;;;3.83;40.59;95117.28;5110270;28;20027;-78
2022/01/20 10:49:52;;;;;;;33.92;15.95;;;;;;;3.81;41.60;95111.38;5093275;28;20047;-78
2022/01/20 10:52:19;;;;;;;52.53;24.30;;;;;;;3.81;41.06;95103.69;5110158;28;20023;-77
2022/01/20 10:54:49;;;;;;;123.32;52.90;;;;;;;3.76;39.96;95105.66;5110128;28;20168;-78
2022/01/20 10:57:17;;;;;;;70.03;31.25;;;;;;;3.85;40.67;95094.91;5110127;28;20023;-78
2022/01/20 10:59:47;;;;;;;29.75;15.00;;;;;;;3.97;39.74;95080.59;5093468;28;20024;-78
2022/01/20 11:02:13;;;;;;;42.03;14.87;;;;;;;4.03;40.80;95085.41;5111654;28;20036;-78
2022/01/20 11:04:39;;;;;;;76.97;39.95;;;;;;;4.04;39.61;95079.38;5110049;28;20028;-78
2022/01/20 11:07:06;;;;;;;29.65;12.63;;;;;;;4.09;38.45;95081.66;5093181;28;20031;-78
2022/01/20 11:09:38;;;;;;;56.38;25.38;;;;;;;4.09;39.04;95086.81;5093542;28;20047;-78
2022/01/20 11:12:04;;;;;;;50.70;27.38;;;;;;;4.00;38.10;95073.53;5110112;28;20049;-77
2022/01/20 11:14:30;;;;;;;49.08;25.33;;;;;;;4.10;39.53;95078.22;5110078;28;20031;-78
2022/01/20 11:16:57;;;;;;;25.35;11.68;;;;;;;4.17;40.03;95069.25;5093085;28;20027;-78
2022/01/20 11:19:23;;;;;;;25.50;11.18;;;;;;;4.27;37.49;95054.16;5093027;28;20450;-78
2022/01/20 11:21:48;;;;;;;22.17;10.70;;;;;;;4.27;38.52;95062.69;5076273;28;20031;-78
2022/01/20 11:24:24;;;;;;;24.83;10.80;;;;;;;4.32;39.65;95050.44;5093092;28;20134;-78
2022/01/20 11:26:55;;;;;;;20.95;11.10;;;;;;;4.40;39.34;95050.84;5109882;28;20055;-77
2022/01/20 11:29:22;;;;;;;23.70;10.15;;;;;;;4.41;39.54;95044.75;5093883;28;20056;-78
2022/01/20 11:31:48;;;;;;;19.45;9.77;;;;;;;4.48;38.59;95040.94;5096929;28;20050;-77
2022/01/20 11:34:18;;;;;;;22.05;9.82;;;;;;;4.48;39.33;95028.09;5114019;28;20023;-78
2022/01/20 11:36:43;;;;;;;21.98;9.40;;;;;;;4.82;34.76;95023.63;5096903;28;20028;-78
2022/01/20 11:39:09;;;;;;;18.92;9.27;;;;;;;4.80;34.89;95020.28;5097016;28;20050;-78
2022/01/20 11:41:47;;;;;;;21.60;8.75;;;;;;;4.79;35.18;95030.66;5113627;28;20028;-78
2022/01/20 11:44:16;;;;;;;19.60;10.10;;;;;;;4.80;35.82;95030.59;5098410;28;20051;-78
2022/01/20 11:46:44;;;;;;;21.60;8.93;;;;;;;4.95;34.36;95015.19;5096550;28;20493;-78
2022/01/20 11:49:11;;;;;;;17.85;8.75;;;;;;;4.88;35.01;95010.41;5113503;28;20052;-77
2022/01/20 11:51:56;;;;;;;24.25;11.07;;;;;;;4.90;35.69;95008.56;5096682;28;20046;-78
2022/01/20 11:54:32;;;;;;;19.98;9.48;;;;;;;4.92;36.46;95000.75;5097563;28;20063;-78
2022/01/20 11:57:08;;;;;;;15.85;8.27;;;;;;;5.03;35.06;95007.84;5113470;28;20027;-78
2022/01/20 11:59:39;;;;;;;20.23;8.65;;;;;;;4.97;35.31;95005.63;5113652;28;20118;-78
2022/01/20 12:02:04;;;;;;;20.55;9.50;;;;;;;4.94;36.21;94991.19;5113331;28;20063;-78
2022/01/20 12:04:43;;;;;;;16.08;8.50;;;;;;;5.11;35.58;94980.72;5113437;28;20492;-78
2022/01/20 12:07:10;;;;;;;21.25;9.90;;;;;;;5.18;36.21;94980.38;5113216;28;20397;-77
2022/01/20 12:09:36;;;;;;;24.10;12.80;;;;;;;5.29;36.59;94978.84;5096446;28;20039;-78
2022/01/20 12:12:07;;;;;;;27.70;12.77;;;;;;;5.36;35.47;94987.84;5113218;28;20106;-77
2022/01/20 12:14:36;;;;;;;23.83;10.52;;;;;;;5.51;33.99;94983.50;5096425;28;20031;-78
2022/01/20 12:17:14;;;;;;;32.92;13.90;;;;;;;5.46;34.49;94982.97;5113088;28;20037;-78
2022/01/20 12:19:40;;;;;;;18.35;8.70;;;;;;;5.82;31.99;94968.75;5103206;28;20110;-77
2022/01/20 12:22:05;;;;;;;17.00;8.00;;;;;;;5.77;32.04;94957.91;5095997;28;20173;-77
2022/01/20 12:24:34;;;;;;;22.83;8.98;;;;;;;5.74;33.58;94973.53;5094324;28;20573;-78
2022/01/20 12:27:00;;;;;;;21.40;11.57;;;;;;;5.69;34.10;94970.44;5112882;28;20527;-77
2022/01/20 12:29:37;;;;;;;20.27;10.52;;;;;;;5.68;33.96;94974.75;5095954;28;20024;-78